createdAt,value
2018-11-29T00:00:34.729Z,11.90
2018-11-29T00:03:03.608Z,16.30
2018-11-29T00:05:32.892Z,14.30
2018-11-29T00:08:01.997Z,14.97
2018-11-29T00:10:30.656Z,17.40
2018-11-29T00:12:59.492Z,20.53
2018-11-29T00:15:28.064Z,15.33
2018-11-29T00:17:56.720Z,18.13
2018-11-29T00:20:25.628Z,15.07
2018-11-29T00:22:54.627Z,18.53
2018-11-29T00:25:23.453Z,16.83
2018-11-29T00:27:52.601Z,18.43
2018-11-29T00:30:22.112Z,15.37
2018-11-29T00:32:51.785Z,18.07
2018-11-29T00:35:20.436Z,16.97
2018-11-29T00:37:49.120Z,19.43
2018-11-29T00:40:18.585Z,20.20
2018-11-29T00:42:47.194Z,18.03
2018-11-29T00:45:17.921Z,18.33
2018-11-29T00:47:47.628Z,17.43
2018-11-29T00:50:17.032Z,15.67
2018-11-29T00:52:46.785Z,15.93
2018-11-29T00:55:16.516Z,16.73
2018-11-29T00:57:46.008Z,15.83
2018-11-29T01:00:19.955Z,15.70
2018-11-29T01:02:48.554Z,16.87
2018-11-29T01:05:17.616Z,19.83
2018-11-29T01:07:46.532Z,14.77
2018-11-29T01:10:16.130Z,11.13
2018-11-29T01:12:45.268Z,15.93
2018-11-29T01:15:15.245Z,10.80
2018-11-29T01:17:44.308Z,17.33
2018-11-29T01:20:14.884Z,6.67
2018-11-29T01:22:43.577Z,10.67
2018-11-29T01:25:13.312Z,9.80
2018-11-29T01:27:43.020Z,13.33
2018-11-29T01:30:12.632Z,9.23
2018-11-29T01:32:41.238Z,10.33
2018-11-29T01:35:10.896Z,12.37
2018-11-29T01:37:39.501Z,10.80
2018-11-29T01:40:10.908Z,11.53
2018-11-29T01:42:40.308Z,9.43
2018-11-29T01:45:08.948Z,8.17
2018-11-29T01:47:37.568Z,8.77
2018-11-29T01:50:06.539Z,11.17
2018-11-29T01:52:35.152Z,13.27
2018-11-29T01:55:03.788Z,13.70
2018-11-29T01:57:33.004Z,12.50
2018-11-29T02:00:02.019Z,12.20
2018-11-29T02:02:30.640Z,11.73
2018-11-29T02:04:59.220Z,12.80
2018-11-29T02:07:27.868Z,13.93
2018-11-29T02:10:01.987Z,14.97
2018-11-29T02:12:30.872Z,15.27
2018-11-29T02:14:59.458Z,14.93
2018-11-29T02:17:28.076Z,16.60
2018-11-29T02:19:57.139Z,16.93
2018-11-29T02:22:25.705Z,19.53
2018-11-29T02:24:54.620Z,14.43
2018-11-29T02:27:23.180Z,12.57
2018-11-29T02:29:51.740Z,15.17
2018-11-29T02:32:20.348Z,13.67
2018-11-29T02:34:48.956Z,10.37
2018-11-29T02:37:18.122Z,11.67
2018-11-29T02:39:47.453Z,16.03
2018-11-29T02:42:16.032Z,20.00
2018-11-29T02:44:44.956Z,14.57
2018-11-29T02:47:13.559Z,14.07
2018-11-29T02:49:42.261Z,13.63
2018-11-29T02:52:11.192Z,15.70
2018-11-29T02:54:39.784Z,13.47
2018-11-29T02:57:09.268Z,16.13
2018-11-29T02:59:37.837Z,12.07
2018-11-29T03:02:06.504Z,18.53
2018-11-29T03:04:35.396Z,15.93
2018-11-29T03:07:04.780Z,16.87
2018-11-29T03:09:33.388Z,18.47
2018-11-29T03:12:01.972Z,19.27
2018-11-29T03:14:30.733Z,16.33
2018-11-29T03:16:59.445Z,13.23
2018-11-29T03:19:28.025Z,18.03
2018-11-29T03:21:56.621Z,15.20
2018-11-29T03:24:25.285Z,21.70
2018-11-29T03:26:54.432Z,19.33
2018-11-29T03:29:23.078Z,19.37
2018-11-29T03:31:52.123Z,18.77
2018-11-29T03:34:21.091Z,21.90
2018-11-29T03:36:49.713Z,15.03
2018-11-29T03:39:18.372Z,21.43
2018-11-29T03:41:47.315Z,22.07
2018-11-29T03:44:15.912Z,16.80
2018-11-29T03:46:44.820Z,17.37
2018-11-29T03:49:13.771Z,23.98
2018-11-29T03:51:42.366Z,23.83
2018-11-29T03:54:11.261Z,17.17
2018-11-29T03:56:39.844Z,19.03
2018-11-29T03:59:09.004Z,20.23
2018-11-29T04:01:37.875Z,18.27
2018-11-29T04:04:06.517Z,20.37
2018-11-29T04:06:35.420Z,19.73
2018-11-29T04:09:10.536Z,20.43
2018-11-29T04:11:39.147Z,23.93
2018-11-29T04:14:07.875Z,18.33
2018-11-29T04:16:37.083Z,19.07
2018-11-29T04:19:06.095Z,21.37
2018-11-29T04:21:34.703Z,15.20
2018-11-29T04:24:03.651Z,9.70
2018-11-29T04:26:32.627Z,8.37
2018-11-29T04:29:01.579Z,17.20
2018-11-29T04:31:30.207Z,20.27
2018-11-29T04:33:59.360Z,16.67
2018-11-29T04:36:28.943Z,15.23
2018-11-29T04:38:57.504Z,24.43
2018-11-29T04:41:26.135Z,17.27
2018-11-29T04:43:55.167Z,24.80
2018-11-29T04:46:54.315Z,21.67
2018-11-29T04:49:22.980Z,22.70
2018-11-29T04:51:51.955Z,20.00
2018-11-29T04:54:20.520Z,19.20
2018-11-29T04:56:49.499Z,19.30
2018-11-29T04:59:19.199Z,22.50
2018-11-29T05:01:48.219Z,11.87
2018-11-29T05:04:16.799Z,22.80
2018-11-29T05:06:45.385Z,19.07
2018-11-29T05:09:13.980Z,24.40
2018-11-29T05:11:43.123Z,26.87
2018-11-29T05:14:11.723Z,28.83
2018-11-29T05:16:40.622Z,35.33
2018-11-29T05:19:09.245Z,32.17
2018-11-29T05:21:37.814Z,31.00
2018-11-29T05:24:06.962Z,32.60
2018-11-29T05:26:35.602Z,34.40
2018-11-29T05:29:05.278Z,31.37
2018-11-29T05:31:33.863Z,27.50
2018-11-29T05:34:02.510Z,24.07
2018-11-29T05:36:31.526Z,32.17
2018-11-29T05:39:00.102Z,39.77
2018-11-29T05:41:28.694Z,35.30
2018-11-29T05:43:57.622Z,34.80
2018-11-29T05:46:26.690Z,29.87
2018-11-29T05:48:55.410Z,35.10
2018-11-29T05:51:24.286Z,30.47
2018-11-29T05:53:52.906Z,34.00
2018-11-29T05:56:21.466Z,26.57
2018-11-29T05:58:50.383Z,24.20
2018-11-29T06:01:23.489Z,21.47
2018-11-29T06:03:52.416Z,21.63
2018-11-29T06:06:21.740Z,16.47
2018-11-29T06:08:50.372Z,21.97
2018-11-29T06:11:19.284Z,24.63
2018-11-29T06:13:47.848Z,22.30
2018-11-29T06:16:16.480Z,16.47
2018-11-29T06:18:45.039Z,21.37
2018-11-29T06:21:13.632Z,26.30
2018-11-29T06:23:42.298Z,26.93
2018-11-29T06:26:11.087Z,26.15
2018-11-29T06:28:41.271Z,31.40
2018-11-29T06:31:10.319Z,33.47
2018-11-29T06:33:38.899Z,32.50
2018-11-29T06:36:07.631Z,26.97
2018-11-29T06:38:36.356Z,27.17
2018-11-29T06:41:05.458Z,21.60
2018-11-29T06:43:34.055Z,20.73
2018-11-29T06:46:02.702Z,19.23
2018-11-29T06:48:31.499Z,18.40
2018-11-29T06:51:00.098Z,16.70
2018-11-29T06:53:34.699Z,18.87
2018-11-29T06:56:03.791Z,16.67
2018-11-29T06:58:32.358Z,18.97
2018-11-29T07:01:01.306Z,17.90
2018-11-29T07:03:30.223Z,18.00
2018-11-29T07:05:58.833Z,16.43
2018-11-29T07:08:27.443Z,18.37
2018-11-29T07:10:56.130Z,9.87
2018-11-29T07:13:24.890Z,18.80
2018-11-29T07:15:53.538Z,18.20
2018-11-29T07:18:22.208Z,18.03
2018-11-29T07:21:02.050Z,19.07
2018-11-29T07:23:31.250Z,14.60
2018-11-29T07:26:00.706Z,17.90
2018-11-29T07:28:29.466Z,15.17
2018-11-29T07:30:58.066Z,17.50
2018-11-29T07:33:27.238Z,15.90
2018-11-29T07:35:55.894Z,16.63
2018-11-29T07:38:24.626Z,21.70
2018-11-29T07:40:54.001Z,21.90
2018-11-29T07:43:22.614Z,20.30
2018-11-29T07:45:51.522Z,17.37
2018-11-29T07:48:20.193Z,16.20
2018-11-29T07:50:48.818Z,23.07
2018-11-29T07:53:17.402Z,19.03
2018-11-29T07:55:46.150Z,14.60
2018-11-29T07:58:15.172Z,21.27
2018-11-29T08:00:43.782Z,16.13
2018-11-29T08:03:12.728Z,14.37
2018-11-29T08:05:41.277Z,22.27
2018-11-29T08:08:10.237Z,15.07
2018-11-29T08:10:39.673Z,16.93
2018-11-29T08:13:08.486Z,14.37
2018-11-29T08:15:37.149Z,10.63
2018-11-29T08:18:06.684Z,12.00
2018-11-29T08:20:35.245Z,12.53
2018-11-29T08:23:05.063Z,12.00
2018-11-29T08:25:33.561Z,11.13
2018-11-29T08:28:02.373Z,16.53
2018-11-29T08:30:30.905Z,11.13
2018-11-29T08:32:59.665Z,10.70
2018-11-29T08:35:28.163Z,14.33
2018-11-29T08:37:56.707Z,8.87
2018-11-29T08:40:25.185Z,10.07
2018-11-29T08:42:53.757Z,12.20
2018-11-29T08:45:22.341Z,13.23
2018-11-29T08:47:50.837Z,12.97
2018-11-29T08:50:19.821Z,11.67
2018-11-29T08:52:48.329Z,9.30
2018-11-29T08:55:17.813Z,9.53
2018-11-29T08:58:17.313Z,13.80
2018-11-29T09:00:45.777Z,5.67
2018-11-29T09:03:14.261Z,7.67
2018-11-29T09:05:43.117Z,11.53
2018-11-29T09:08:11.941Z,12.33
2018-11-29T09:10:40.465Z,10.07
2018-11-29T09:13:09.061Z,8.73
2018-11-29T09:15:37.537Z,9.67
2018-11-29T09:18:06.606Z,10.43
2018-11-29T09:20:35.369Z,9.37
2018-11-29T09:23:03.853Z,12.03
2018-11-29T09:25:32.364Z,9.90
2018-11-29T09:28:00.835Z,8.70
2018-11-29T09:30:29.320Z,11.50
2018-11-29T09:32:57.811Z,10.50
2018-11-29T09:35:26.289Z,12.90
2018-11-29T09:37:54.768Z,8.63
2018-11-29T09:40:23.269Z,10.80
2018-11-29T09:42:52.137Z,11.13
2018-11-29T09:45:23.363Z,12.97
2018-11-29T09:47:58.291Z,8.37
2018-11-29T09:50:26.967Z,7.23
2018-11-29T09:52:55.509Z,10.93
2018-11-29T09:55:23.985Z,9.57
2018-11-29T09:57:52.601Z,9.07
2018-11-29T10:00:28.112Z,8.10
2018-11-29T10:03:23.889Z,10.73
2018-11-29T10:05:52.684Z,7.63
2018-11-29T10:08:26.115Z,11.33
2018-11-29T10:10:49.757Z,14.63
2018-11-29T10:13:18.305Z,6.47
2018-11-29T10:15:47.289Z,13.80
2018-11-29T10:18:15.813Z,12.27
2018-11-29T10:20:44.294Z,13.07
2018-11-29T10:23:12.749Z,11.67
2018-11-29T10:25:41.720Z,11.77
2018-11-29T10:28:15.740Z,11.53
2018-11-29T10:30:47.518Z,10.33
2018-11-29T10:33:16.006Z,18.90
2018-11-29T10:35:44.566Z,9.40
2018-11-29T10:38:13.317Z,15.53
2018-11-29T10:40:42.313Z,11.70
2018-11-29T10:43:11.085Z,8.80
2018-11-29T10:45:40.429Z,6.13
2018-11-29T10:48:14.573Z,9.87
2018-11-29T10:50:43.097Z,11.67
2018-11-29T10:53:11.984Z,10.97
2018-11-29T10:55:40.521Z,7.00
2018-11-29T10:58:09.261Z,13.97
2018-11-29T11:01:45.229Z,9.70
2018-11-29T11:04:14.033Z,12.10
2018-11-29T11:06:42.808Z,14.67
2018-11-29T11:09:11.335Z,12.90
2018-11-29T11:11:40.764Z,7.53
2018-11-29T11:14:09.240Z,7.67
2018-11-29T11:16:37.965Z,11.60
2018-11-29T11:19:06.433Z,10.90
2018-11-29T11:21:34.913Z,11.70
2018-11-29T11:24:03.425Z,14.17
2018-11-29T11:26:31.901Z,13.70
2018-11-29T11:29:00.759Z,12.93
2018-11-29T11:31:31.223Z,11.00
2018-11-29T11:33:57.956Z,12.53
2018-11-29T11:36:26.560Z,11.37
2018-11-29T11:38:55.133Z,11.63
2018-11-29T11:41:24.233Z,14.43
2018-11-29T11:43:52.712Z,15.00
2018-11-29T11:46:21.792Z,15.43
2018-11-29T11:48:50.712Z,11.50
2018-11-29T11:51:19.357Z,14.10
2018-11-29T11:53:48.220Z,17.30
2018-11-29T11:56:16.699Z,13.40
2018-11-29T11:58:45.556Z,14.60
2018-11-29T12:01:14.068Z,14.13
2018-11-29T12:03:42.807Z,14.37
2018-11-29T12:06:11.577Z,18.83
2018-11-29T12:08:40.117Z,20.90
2018-11-29T12:11:08.676Z,17.70
2018-11-29T12:13:37.153Z,10.53
2018-11-29T12:16:05.999Z,19.47
2018-11-29T12:18:34.604Z,18.23
2018-11-29T12:21:03.076Z,14.93
2018-11-29T12:23:31.581Z,10.83
2018-11-29T12:26:00.148Z,19.13
2018-11-29T12:28:28.704Z,18.57
2018-11-29T12:30:57.206Z,19.13
2018-11-29T12:33:25.724Z,16.40
2018-11-29T12:35:54.520Z,19.77
2018-11-29T12:38:23.045Z,20.67
2018-11-29T12:40:51.965Z,20.47
2018-11-29T12:43:20.496Z,19.53
2018-11-29T12:45:49.028Z,19.57
2018-11-29T12:48:17.632Z,17.90
2018-11-29T12:50:46.258Z,21.93
2018-11-29T12:53:15.088Z,21.67
2018-11-29T12:55:44.687Z,22.03
2018-11-29T12:58:13.168Z,21.97
2018-11-29T13:00:41.630Z,22.23
2018-11-29T13:03:11.102Z,17.47
2018-11-29T13:05:39.750Z,17.43
2018-11-29T13:08:09.110Z,19.57
2018-11-29T13:10:37.619Z,22.17
2018-11-29T13:13:07.062Z,17.53
2018-11-29T13:15:35.932Z,15.70
2018-11-29T13:18:08.733Z,19.27
2018-11-29T13:20:37.445Z,15.37
2018-11-29T13:23:06.602Z,19.77
2018-11-29T13:25:35.141Z,18.30
2018-11-29T13:28:04.551Z,21.53
2018-11-29T13:30:33.505Z,17.17
2018-11-29T13:33:02.006Z,21.80
2018-11-29T13:35:34.530Z,20.87
2018-11-29T13:38:05.871Z,20.97
2018-11-29T13:40:34.326Z,23.10
2018-11-29T13:43:02.937Z,19.63
2018-11-29T13:45:31.498Z,18.03
2018-11-29T13:48:00.015Z,19.07
2018-11-29T13:50:28.817Z,18.73
2018-11-29T13:52:57.538Z,20.77
2018-11-29T13:55:26.241Z,18.23
2018-11-29T13:57:54.981Z,18.70
2018-11-29T14:00:24.128Z,19.17
2018-11-29T14:02:54.877Z,18.07
2018-11-29T14:05:23.901Z,17.87
2018-11-29T14:07:52.918Z,24.70
2018-11-29T14:10:22.880Z,26.13
2018-11-29T14:12:55.157Z,19.80
2018-11-29T14:15:25.209Z,21.63
2018-11-29T14:17:54.121Z,22.03
2018-11-29T14:20:23.073Z,17.83
2018-11-29T14:22:51.725Z,22.73
2018-11-29T14:25:20.281Z,18.73
2018-11-29T14:27:51.285Z,19.33
2018-11-29T14:30:23.964Z,23.20
2018-11-29T14:32:53.421Z,19.33
2018-11-29T14:35:22.158Z,20.83
2018-11-29T14:37:50.725Z,13.07
2018-11-29T14:40:20.539Z,17.83
2018-11-29T14:42:49.488Z,18.53
2018-11-29T14:45:19.051Z,17.43
2018-11-29T14:47:47.668Z,21.23
2018-11-29T14:50:34.965Z,16.65
2018-11-29T14:53:03.569Z,23.27
2018-11-29T14:55:32.128Z,16.50
2018-11-29T14:58:00.756Z,18.07
2018-11-29T15:00:29.627Z,20.83
2018-11-29T15:02:59.335Z,12.93
2018-11-29T15:05:30.119Z,18.60
2018-11-29T15:07:58.823Z,19.03
2018-11-29T15:10:27.539Z,19.00
2018-11-29T15:12:56.139Z,18.10
2018-11-29T15:15:25.083Z,18.63
2018-11-29T15:17:54.611Z,14.93
2018-11-29T15:20:27.687Z,15.57
2018-11-29T15:22:56.658Z,18.17
2018-11-29T15:25:25.270Z,18.77
2018-11-29T15:27:53.891Z,14.47
2018-11-29T15:30:23.195Z,16.47
2018-11-29T15:32:53.598Z,14.17
2018-11-29T15:35:22.183Z,18.40
2018-11-29T15:37:50.730Z,18.73
2018-11-29T15:40:21.146Z,18.40
2018-11-29T15:42:49.795Z,17.10
2018-11-29T15:45:19.542Z,18.87
2018-11-29T15:47:48.306Z,15.10
2018-11-29T15:50:17.142Z,16.93
2018-11-29T15:52:46.051Z,16.20
2018-11-29T15:55:15.524Z,16.83
2018-11-29T15:57:44.638Z,18.27
2018-11-29T16:00:15.643Z,17.20
2018-11-29T16:02:45.103Z,19.43
2018-11-29T16:05:13.919Z,14.77
2018-11-29T16:07:42.757Z,13.90
2018-11-29T16:10:14.133Z,15.87
2018-11-29T16:12:42.772Z,13.07
2018-11-29T16:15:13.375Z,13.25
2018-11-29T16:17:42.428Z,13.67
2018-11-29T16:20:13.460Z,16.73
2018-11-29T16:22:42.248Z,17.63
2018-11-29T16:25:11.492Z,20.57
2018-11-29T16:27:40.132Z,12.97
2018-11-29T16:30:43.409Z,15.57
2018-11-29T16:33:18.293Z,21.97
2018-11-29T16:35:46.977Z,15.47
2018-11-29T16:38:15.699Z,16.27
2018-11-29T16:40:44.541Z,15.33
2018-11-29T16:43:13.129Z,15.80
2018-11-29T16:45:41.725Z,15.17
2018-11-29T16:48:10.629Z,8.10
2018-11-29T16:50:39.744Z,13.37
2018-11-29T16:53:08.669Z,15.07
2018-11-29T16:55:37.889Z,12.57
2018-11-29T16:58:12.753Z,11.63
2018-11-29T17:00:41.514Z,16.67
2018-11-29T17:03:10.362Z,14.47
2018-11-29T17:05:39.017Z,12.30
2018-11-29T17:08:07.883Z,12.83
2018-11-29T17:10:36.849Z,17.57
2018-11-29T17:13:12.280Z,18.37
2018-11-29T17:15:40.843Z,20.33
2018-11-29T17:18:09.788Z,10.63
2018-11-29T17:20:38.472Z,17.17
2018-11-29T17:23:09.292Z,15.17
2018-11-29T17:25:37.932Z,17.10
2018-11-29T17:28:07.208Z,13.03
2018-11-29T17:30:36.377Z,13.30
2018-11-29T17:33:05.520Z,12.87
2018-11-29T17:35:34.374Z,15.47
2018-11-29T17:38:05.168Z,12.83
2018-11-29T17:40:34.026Z,9.60
2018-11-29T17:43:02.632Z,11.00
2018-11-29T17:45:31.401Z,15.23
2018-11-29T17:48:01.336Z,14.07
2018-11-29T17:50:32.049Z,10.87
2018-11-29T17:53:00.648Z,14.47
2018-11-29T17:55:29.636Z,13.30
2018-11-29T17:57:58.236Z,15.17
2018-11-29T18:00:29.272Z,15.00
2018-11-29T18:02:57.880Z,13.60
2018-11-29T18:05:26.444Z,19.37
2018-11-29T18:07:55.272Z,13.37
2018-11-29T18:10:26.943Z,9.20
2018-11-29T18:12:58.172Z,15.97
2018-11-29T18:15:29.347Z,16.83
2018-11-29T18:17:58.005Z,16.03
2018-11-29T18:20:26.748Z,11.10
2018-11-29T18:22:55.295Z,16.93
2018-11-29T18:25:23.895Z,20.17
2018-11-29T18:27:52.697Z,15.53
2018-11-29T18:30:22.043Z,11.83
2018-11-29T18:32:50.923Z,20.27
2018-11-29T18:35:19.547Z,13.28
2018-11-29T18:37:48.170Z,13.50
2018-11-29T18:40:19.987Z,11.07
2018-11-29T18:42:51.807Z,16.13
2018-11-29T18:45:20.844Z,15.13
2018-11-29T18:47:50.410Z,14.80
2018-11-29T18:50:19.891Z,14.60
2018-11-29T18:52:48.740Z,15.70
2018-11-29T18:55:17.627Z,17.87
2018-11-29T18:57:46.555Z,16.63
2018-11-29T19:00:18.785Z,11.27
2018-11-29T19:02:47.403Z,8.77
2018-11-29T19:05:16.102Z,15.23
2018-11-29T19:07:49.485Z,16.17
2018-11-29T19:10:21.600Z,16.35
2018-11-29T19:12:55.848Z,18.47
2018-11-29T19:15:24.602Z,12.03
2018-11-29T19:17:53.178Z,16.10
2018-11-29T19:20:22.051Z,13.90
2018-11-29T19:22:51.405Z,17.70
2018-11-29T19:25:20.578Z,18.40
2018-11-29T19:27:49.950Z,15.07
2018-11-29T19:30:21.479Z,19.25
2018-11-29T19:32:51.797Z,13.20
2018-11-29T19:35:20.320Z,15.10
2018-11-29T19:37:52.045Z,12.60
2018-11-29T19:40:20.578Z,12.07
2018-11-29T19:42:49.233Z,14.00
2018-11-29T19:45:17.826Z,17.20
2018-11-29T19:47:46.290Z,9.57
2018-11-29T19:50:17.950Z,17.67
2018-11-29T19:52:48.894Z,14.20
2018-11-29T19:55:19.114Z,14.70
2018-11-29T19:57:47.658Z,13.97
2018-11-29T20:00:16.334Z,12.90
2018-11-29T20:02:45.724Z,20.07
2018-11-29T20:05:14.280Z,17.90
2018-11-29T20:07:42.784Z,13.47
2018-11-29T20:10:14.123Z,21.30
2018-11-29T20:12:42.822Z,14.57
2018-11-29T20:15:14.113Z,15.23
2018-11-29T20:17:42.583Z,12.90
2018-11-29T20:20:11.980Z,15.18
2018-11-29T20:22:40.941Z,16.67
2018-11-29T20:25:14.885Z,18.62
2018-11-29T20:27:43.461Z,13.30
2018-11-29T20:30:13.656Z,19.00
2018-11-29T20:32:42.180Z,15.37
2018-11-29T20:35:11.480Z,19.43
2018-11-29T20:37:40.179Z,18.07
2018-11-29T20:40:22.640Z,14.33
2018-11-29T20:42:52.255Z,14.07
2018-11-29T20:45:23.371Z,18.13
2018-11-29T20:47:51.873Z,14.73
2018-11-29T20:50:21.579Z,15.50
2018-11-29T20:52:51.291Z,17.33
2018-11-29T20:55:23.680Z,16.70
2018-11-29T20:57:52.583Z,16.67
2018-11-29T21:00:21.775Z,17.80
2018-11-29T21:02:51.111Z,16.37
2018-11-29T21:05:20.824Z,18.37
2018-11-29T21:07:51.086Z,17.53
2018-11-29T21:10:26.378Z,24.50
2018-11-29T21:12:55.167Z,14.63
2018-11-29T21:15:23.723Z,22.47
2018-11-29T21:17:52.387Z,20.80
2018-11-29T21:20:21.396Z,19.90
2018-11-29T21:22:50.972Z,18.20
2018-11-29T21:25:23.804Z,19.33
2018-11-29T21:27:52.480Z,19.13
2018-11-29T21:30:21.092Z,19.33
2018-11-29T21:32:50.586Z,12.17
2018-11-29T21:35:22.316Z,16.50
2018-11-29T21:37:52.270Z,21.70
2018-11-29T21:40:23.184Z,18.30
2018-11-29T21:42:51.684Z,12.93
2018-11-29T21:45:20.500Z,11.87
2018-11-29T21:47:49.041Z,15.40
2018-11-29T21:50:17.678Z,14.23
2018-11-29T21:52:46.208Z,15.97
2018-11-29T21:55:14.798Z,12.10
2018-11-29T21:57:43.428Z,14.90
2018-11-29T22:00:14.545Z,12.70
2018-11-29T22:02:44.748Z,16.67
2018-11-29T22:05:13.351Z,18.60
2018-11-29T22:07:41.851Z,16.80
2018-11-29T22:10:10.371Z,15.43
2018-11-29T22:12:39.335Z,16.00
2018-11-29T22:15:10.840Z,18.97
2018-11-29T22:18:42.611Z,14.60
2018-11-29T22:21:11.211Z,19.80
2018-11-29T22:23:40.664Z,10.40
2018-11-29T22:26:11.763Z,13.23
2018-11-29T22:28:40.875Z,13.27
2018-11-29T22:31:09.355Z,16.27
2018-11-29T22:33:38.022Z,17.27
2018-11-29T22:36:06.714Z,16.87
2018-11-29T22:38:35.210Z,13.83
2018-11-29T22:41:03.705Z,14.27
2018-11-29T22:43:32.328Z,18.33
2018-11-29T22:46:00.870Z,14.50
2018-11-29T22:48:29.342Z,18.40
2018-11-29T22:50:57.915Z,18.00
2018-11-29T22:53:28.513Z,13.37
2018-11-29T22:55:57.386Z,14.20
2018-11-29T22:58:25.994Z,17.33
2018-11-29T23:00:54.827Z,16.10
2018-11-29T23:03:23.338Z,14.13
2018-11-29T23:05:51.819Z,17.20
2018-11-29T23:08:20.446Z,12.90
2018-11-29T23:10:48.947Z,15.60
2018-11-29T23:13:17.423Z,16.23
2018-11-29T23:15:45.954Z,17.17
2018-11-29T23:18:14.445Z,13.50
2018-11-29T23:20:43.046Z,15.60
2018-11-29T23:23:12.063Z,17.83
2018-11-29T23:25:40.658Z,18.97
2018-11-29T23:28:09.115Z,14.83
2018-11-29T23:30:37.639Z,15.77
2018-11-29T23:33:06.155Z,15.73
2018-11-29T23:35:34.632Z,16.67
2018-11-29T23:38:03.209Z,20.77
2018-11-29T23:40:31.816Z,14.87
2018-11-29T23:43:00.340Z,15.97
2018-11-29T23:45:28.835Z,17.30
2018-11-29T23:47:57.320Z,13.47
2018-11-29T23:50:25.852Z,16.17
2018-11-29T23:52:54.355Z,14.13
2018-11-29T23:55:23.196Z,15.17
2018-11-29T23:57:51.959Z,15.23
